Time;durP1;ratioP1;P1;durP2;ratioP2;P2;SDS_P1;SDS_P2;PMS_P1;PMS_P2;Temp;Humidity;BMP_temperature;BMP_pressure;BME280_temperature;BME280_humidity;BME280_pressure;Samples;Min_cycle;Max_cycle;Signal;HPM_P1;HPM_P2
2022/09/27 00:00:13;;;;;;;11.20;9.90;;;10.40;99.90;;;;;;5093005;28;20975;-69
2022/09/27 00:02:41;;;;;;;11.13;9.70;;;10.30;99.90;;;;;;5095016;28;20995;-71
2022/09/27 00:05:08;;;;;;;11.00;10.10;;;10.30;99.90;;;;;;5095290;28;20462;-69
2022/09/27 00:07:35;;;;;;;13.30;10.43;;;10.40;99.90;;;;;;5093273;28;20484;-71
2022/09/27 00:10:02;;;;;;;18.33;9.70;;;10.40;99.90;;;;;;5091477;28;20480;-69
2022/09/27 00:12:29;;;;;;;9.40;8.50;;;10.30;99.90;;;;;;5090693;28;20975;-70
2022/09/27 00:14:56;;;;;;;8.40;7.60;;;10.30;99.90;;;;;;5096988;28;20985;-70
2022/09/27 00:17:23;;;;;;;9.73;7.90;;;10.30;99.90;;;;;;5098320;28;20465;-69
2022/09/27 00:19:55;;;;;;;10.97;8.67;;;10.30;99.90;;;;;;5095596;28;20441;-70
2022/09/27 00:22:24;;;;;;;8.07;7.23;;;10.30;99.90;;;;;;5098389;28;20464;-68
2022/09/27 00:24:51;;;;;;;7.70;7.10;;;10.30;99.90;;;;;;5094599;28;20470;-69
2022/09/27 00:27:18;;;;;;;7.00;6.40;;;10.20;99.90;;;;;;5091558;28;20552;-69
2022/09/27 00:29:45;;;;;;;11.47;7.37;;;10.20;99.90;;;;;;5092827;28;20450;-69
2022/09/27 00:32:12;;;;;;;10.67;7.50;;;10.20;99.90;;;;;;5093296;28;20469;-71
2022/09/27 00:34:40;;;;;;;7.97;7.17;;;10.20;99.90;;;;;;5097230;28;20513;-69
2022/09/27 00:37:09;;;;;;;9.10;7.30;;;10.20;99.90;;;;;;5094564;28;20465;-71
2022/09/27 00:39:38;;;;;;;7.53;6.93;;;10.20;99.90;;;;;;5094971;28;20464;-69
2022/09/27 00:42:06;;;;;;;7.90;7.30;;;10.20;99.90;;;;;;5098121;28;20457;-71
2022/09/27 00:45:11;;;;;;;9.03;8.00;;;10.20;99.90;;;;;;5097213;28;20517;-68
2022/09/27 00:47:44;;;;;;;9.23;8.23;;;10.30;99.90;;;;;;5098987;28;20460;-69
2022/09/27 00:50:23;;;;;;;9.13;8.10;;;10.30;99.90;;;;;;5098663;28;20462;-69
2022/09/27 00:52:59;;;;;;;8.27;7.47;;;10.30;99.90;;;;;;5098897;28;20453;-68
2022/09/27 00:55:30;;;;;;;13.43;9.40;;;10.30;99.90;;;;;;5097065;28;20586;-68
2022/09/27 00:57:57;;;;;;;11.70;9.33;;;10.30;99.90;;;;;;5093800;28;20462;-69
2022/09/27 01:00:24;;;;;;;12.13;9.33;;;10.20;99.90;;;;;;5094005;28;20461;-68
2022/09/27 01:02:53;;;;;;;10.60;9.30;;;10.30;99.90;;;;;;5090951;28;20467;-69
2022/09/27 01:05:25;;;;;;;10.23;8.93;;;10.20;99.90;;;;;;5097241;28;20471;-68
2022/09/27 01:07:55;;;;;;;21.43;10.57;;;10.20;99.90;;;;;;5092947;28;20458;-69
2022/09/27 01:10:25;;;;;;;11.47;10.17;;;10.20;99.90;;;;;;5093096;28;20462;-70
2022/09/27 01:12:59;;;;;;;9.73;8.83;;;10.20;99.90;;;;;;5093810;28;21176;-68
2022/09/27 01:15:31;;;;;;;11.33;9.60;;;10.20;99.90;;;;;;5099283;28;20501;-68
2022/09/27 01:18:13;;;;;;;10.70;9.80;;;10.30;99.90;;;;;;5100806;28;21032;-69
2022/09/27 01:21:25;;;;;;;12.57;10.17;;;10.20;99.90;;;;;;5100151;28;20488;-68
2022/09/27 01:24:25;;;;;;;11.67;10.43;;;10.20;99.90;;;;;;5057512;28;20450;-68
2022/09/27 01:27:22;;;;;;;14.23;9.47;;;10.20;99.90;;;;;;5096005;28;20457;-68
2022/09/27 01:30:15;;;;;;;9.47;8.77;;;10.20;99.90;;;;;;5074278;28;20453;-70
2022/09/27 01:32:52;;;;;;;13.07;10.20;;;10.10;99.90;;;;;;5098938;28;20491;-69
2022/09/27 01:35:24;;;;;;;13.87;11.27;;;10.10;99.90;;;;;;5094431;28;20760;-68
2022/09/27 01:38:01;;;;;;;11.47;10.37;;;10.10;99.90;;;;;;5093483;28;20751;-67
2022/09/27 01:40:33;;;;;;;15.27;12.27;;;10.10;99.90;;;;;;5098596;28;20472;-68
2022/09/27 01:43:06;;;;;;;11.17;10.07;;;10.10;99.90;;;;;;5100338;28;20480;-68
2022/09/27 01:45:37;;;;;;;11.80;10.70;;;10.20;99.90;;;;;;5094621;28;20460;-68
2022/09/27 01:48:08;;;;;;;11.83;10.70;;;10.20;99.90;;;;;;5096746;28;20910;-69
2022/09/27 01:50:40;;;;;;;11.23;10.20;;;10.10;99.90;;;;;;5095908;28;20460;-68
2022/09/27 01:53:12;;;;;;;11.77;10.63;;;10.10;99.90;;;;;;5099794;28;20468;-67
2022/09/27 01:55:39;;;;;;;18.80;9.40;;;10.10;99.90;;;;;;5102242;28;20499;-68
2022/09/27 01:58:12;;;;;;;14.40;10.60;;;10.10;99.90;;;;;;5092526;28;20458;-68
2022/09/27 02:00:44;;;;;;;11.73;10.83;;;10.10;99.90;;;;;;5094257;28;20461;-68
2022/09/27 02:03:15;;;;;;;12.43;11.37;;;10.00;99.90;;;;;;5097198;28;20835;-68
2022/09/27 02:05:45;;;;;;;12.63;10.30;;;10.00;99.90;;;;;;5096448;28;20466;-68
2022/09/27 02:08:22;;;;;;;12.23;10.37;;;10.00;99.90;;;;;;5097755;28;20485;-67
2022/09/27 02:10:54;;;;;;;10.27;9.57;;;10.00;99.90;;;;;;5095952;28;20466;-68
2022/09/27 02:13:24;;;;;;;9.97;9.40;;;10.00;99.90;;;;;;5097393;28;20488;-68
2022/09/27 02:16:02;;;;;;;10.60;9.90;;;9.90;99.90;;;;;;5096105;28;20576;-69
2022/09/27 02:18:36;;;;;;;10.07;9.27;;;9.80;99.90;;;;;;5097183;28;20458;-68
2022/09/27 02:21:08;;;;;;;9.97;9.37;;;9.80;99.90;;;;;;5094310;28;20475;-68
2022/09/27 02:23:40;;;;;;;11.00;10.20;;;9.80;99.90;;;;;;5099486;28;20499;-68
2022/09/27 02:26:15;;;;;;;10.17;9.47;;;9.70;99.90;;;;;;5097695;28;20489;-68
2022/09/27 02:28:45;;;;;;;9.77;8.90;;;9.70;99.90;;;;;;5101071;28;20481;-67
2022/09/27 02:31:14;;;;;;;10.27;9.47;;;9.60;99.90;;;;;;5095735;28;20462;-69
2022/09/27 02:33:47;;;;;;;9.30;8.60;;;9.60;99.90;;;;;;5101954;28;20478;-69
2022/09/27 02:36:16;;;;;;;9.10;8.40;;;9.60;99.90;;;;;;5096211;28;20485;-69
2022/09/27 02:38:44;;;;;;;9.07;8.37;;;9.60;99.90;;;;;;5098119;28;20865;-68
2022/09/27 02:41:15;;;;;;;9.93;9.07;;;9.50;99.90;;;;;;5094705;28;20472;-68
2022/09/27 02:43:45;;;;;;;9.03;8.40;;;9.50;99.90;;;;;;5092232;28;20551;-69
2022/09/27 02:46:33;;;;;;;9.23;8.47;;;9.50;99.90;;;;;;5096518;28;20547;-69
2022/09/27 02:49:12;;;;;;;9.40;8.73;;;9.40;99.90;;;;;;5096203;28;20503;-68
2022/09/27 02:51:50;;;;;;;8.03;7.43;;;9.50;99.90;;;;;;5099429;28;20576;-69
2022/09/27 02:54:25;;;;;;;8.80;8.20;;;9.50;99.90;;;;;;5096318;28;20498;-69
2022/09/27 02:57:03;;;;;;;8.13;7.63;;;9.50;99.90;;;;;;5099078;28;20543;-69
2022/09/27 02:59:38;;;;;;;8.73;7.87;;;9.50;99.90;;;;;;5095879;28;20472;-69
2022/09/27 03:02:19;;;;;;;11.30;8.90;;;9.50;99.90;;;;;;5093810;28;20519;-70
2022/09/27 03:04:51;;;;;;;10.90;8.53;;;9.50;99.90;;;;;;5090914;28;20462;-69
2022/09/27 03:07:19;;;;;;;9.27;8.67;;;9.60;99.90;;;;;;5101698;28;20461;-69
2022/09/27 03:09:48;;;;;;;9.00;8.30;;;9.60;99.90;;;;;;5094988;28;20462;-69
2022/09/27 03:12:19;;;;;;;9.57;8.87;;;9.50;99.90;;;;;;5099989;28;20520;-69
2022/09/27 03:14:46;;;;;;;14.23;9.27;;;9.50;99.90;;;;;;5093894;28;20566;-69
2022/09/27 03:17:15;;;;;;;9.10;8.30;;;9.40;99.90;;;;;;5096054;28;20465;-69
2022/09/27 03:19:42;;;;;;;9.07;8.17;;;9.30;99.90;;;;;;5099607;28;20472;-69
2022/09/27 03:22:10;;;;;;;13.00;9.13;;;9.30;99.90;;;;;;5096801;28;20458;-69
2022/09/27 03:24:37;;;;;;;12.40;8.37;;;9.20;99.90;;;;;;5099419;28;20506;-69
2022/09/27 03:27:04;;;;;;;8.63;7.90;;;9.20;99.90;;;;;;5096946;28;20921;-68
2022/09/27 03:29:31;;;;;;;8.00;7.60;;;9.20;99.90;;;;;;5096304;28;20512;-69
2022/09/27 03:31:59;;;;;;;8.57;7.80;;;9.10;99.90;;;;;;5094034;28;20493;-69
2022/09/27 03:34:27;;;;;;;8.17;7.73;;;9.10;99.90;;;;;;5096457;28;20464;-69
2022/09/27 03:36:54;;;;;;;7.97;7.57;;;9.00;99.90;;;;;;5098824;28;20719;-69
2022/09/27 03:39:21;;;;;;;8.67;8.10;;;9.00;99.90;;;;;;5101265;28;20551;-69
2022/09/27 03:41:49;;;;;;;8.20;7.70;;;9.10;99.90;;;;;;5097340;28;20461;-68
2022/09/27 03:44:16;;;;;;;8.40;7.70;;;9.10;99.90;;;;;;5096874;28;20449;-69
2022/09/27 03:46:43;;;;;;;8.03;7.63;;;9.10;99.90;;;;;;5098680;28;20840;-68
2022/09/27 03:49:10;;;;;;;8.13;7.40;;;9.10;99.90;;;;;;5095652;28;20549;-69
2022/09/27 03:51:39;;;;;;;7.70;6.73;;;9.10;99.90;;;;;;5097719;28;20546;-69
2022/09/27 03:54:07;;;;;;;7.03;6.50;;;9.10;99.90;;;;;;5096292;28;20512;-68
2022/09/27 03:56:35;;;;;;;8.30;7.70;;;9.10;99.90;;;;;;5101268;28;20492;-68
2022/09/27 03:59:02;;;;;;;9.03;8.43;;;9.10;99.90;;;;;;5089379;28;20471;-69
2022/09/27 04:01:29;;;;;;;8.60;7.80;;;9.00;99.90;;;;;;5096521;28;20546;-69
2022/09/27 04:03:56;;;;;;;10.40;8.03;;;9.00;99.90;;;;;;5093069;28;20469;-68
2022/09/27 04:06:25;;;;;;;9.70;7.80;;;8.90;99.90;;;;;;5091882;28;21006;-69
2022/09/27 04:08:54;;;;;;;15.10;7.83;;;8.90;99.90;;;;;;5090524;28;20940;-68
2022/09/27 04:11:22;;;;;;;7.40;6.80;;;8.90;99.90;;;;;;5092973;28;20457;-67
2022/09/27 04:13:50;;;;;;;18.23;7.90;;;8.90;99.90;;;;;;5090346;28;20844;-68
2022/09/27 04:16:17;;;;;;;10.53;8.40;;;9.00;99.90;;;;;;5095046;28;20966;-68
2022/09/27 04:18:45;;;;;;;9.60;8.90;;;9.00;99.90;;;;;;5093861;28;20821;-69
2022/09/27 04:21:12;;;;;;;14.57;8.60;;;9.00;99.90;;;;;;5092710;28;20973;-70
2022/09/27 04:23:40;;;;;;;10.70;10.00;;;9.00;99.90;;;;;;5098643;28;20464;-68
2022/09/27 04:26:09;;;;;;;14.23;8.70;;;9.00;99.90;;;;;;5092863;28;20462;-68
2022/09/27 04:28:36;;;;;;;11.13;9.03;;;8.90;99.90;;;;;;5091870;28;20488;-68
2022/09/27 04:31:03;;;;;;;8.90;8.20;;;8.90;99.90;;;;;;5096201;28;20461;-69
2022/09/27 04:33:30;;;;;;;9.73;8.90;;;8.90;99.90;;;;;;5092621;28;20557;-69
2022/09/27 04:38:42;;;;;;;9.17;8.47;;;8.90;99.90;;;;;;5099265;28;20455;-69
2022/09/27 04:41:10;;;;;;;9.20;8.50;;;8.90;99.90;;;;;;5092326;28;20492;-69
2022/09/27 04:43:37;;;;;;;8.93;8.33;;;8.80;99.90;;;;;;5091409;28;20467;-68
2022/09/27 04:46:03;;;;;;;8.87;8.47;;;8.80;99.90;;;;;;5091173;28;20465;-69
2022/09/27 04:48:30;;;;;;;8.80;8.40;;;8.80;99.90;;;;;;5091293;28;20462;-68
2022/09/27 04:50:59;;;;;;;9.47;8.57;;;8.80;99.90;;;;;;5093734;28;21018;-68
2022/09/27 04:53:26;;;;;;;8.90;8.20;;;8.80;99.90;;;;;;5093991;28;20849;-68
2022/09/27 04:55:55;;;;;;;9.00;7.97;;;8.70;99.90;;;;;;5089664;28;20486;-69
2022/09/27 04:58:25;;;;;;;8.67;8.10;;;8.70;99.90;;;;;;5091284;28;20908;-68
2022/09/27 05:00:54;;;;;;;9.30;8.73;;;8.70;99.90;;;;;;5092643;28;20458;-69
2022/09/27 05:03:21;;;;;;;9.50;8.77;;;8.60;99.90;;;;;;5094122;28;20466;-69
2022/09/27 05:05:48;;;;;;;9.07;8.27;;;8.60;99.90;;;;;;5091958;28;20460;-68
2022/09/27 05:08:15;;;;;;;9.23;8.07;;;8.60;99.90;;;;;;5091644;28;20460;-69
2022/09/27 05:10:42;;;;;;;8.60;7.90;;;8.60;99.90;;;;;;5089892;28;20458;-69
2022/09/27 05:13:09;;;;;;;8.83;8.17;;;8.60;99.90;;;;;;5089095;28;20483;-67
2022/09/27 05:15:38;;;;;;;8.50;8.00;;;8.60;99.90;;;;;;5098410;28;20494;-68
2022/09/27 05:18:05;;;;;;;9.83;8.67;;;8.50;99.90;;;;;;5098543;28;20464;-69
2022/09/27 05:20:34;;;;;;;11.30;7.50;;;8.60;99.90;;;;;;5098629;28;20825;-68
2022/09/27 05:23:02;;;;;;;8.40;7.90;;;8.70;99.90;;;;;;5101357;28;20457;-69
2022/09/27 05:25:30;;;;;;;8.70;8.20;;;8.70;99.90;;;;;;5094713;28;20568;-68
2022/09/27 05:27:57;;;;;;;8.63;8.13;;;8.80;99.90;;;;;;5103005;28;20819;-69
2022/09/27 05:30:26;;;;;;;9.17;8.57;;;8.80;99.90;;;;;;5098168;28;20464;-69
2022/09/27 05:32:55;;;;;;;8.33;7.53;;;8.80;99.90;;;;;;5093582;28;20464;-69
2022/09/27 05:35:23;;;;;;;8.60;7.50;;;8.80;99.90;;;;;;5097413;28;20464;-69
2022/09/27 05:37:54;;;;;;;8.10;7.30;;;8.80;99.90;;;;;;5093214;28;20698;-68
2022/09/27 05:40:24;;;;;;;7.60;7.10;;;8.80;99.90;;;;;;5097428;28;20841;-68
2022/09/27 05:42:53;;;;;;;7.53;7.03;;;8.80;99.90;;;;;;5097859;28;20514;-68
2022/09/27 05:45:22;;;;;;;6.83;6.27;;;8.90;99.90;;;;;;5099331;28;20818;-68
2022/09/27 05:47:58;;;;;;;8.53;6.70;;;8.90;99.90;;;;;;5094627;28;20552;-68
2022/09/27 05:50:25;;;;;;;6.10;5.73;;;8.90;99.90;;;;;;5101587;28;20465;-69
2022/09/27 05:52:53;;;;;;;7.00;6.37;;;8.90;99.90;;;;;;5096663;28;20486;-69
2022/09/27 05:55:21;;;;;;;7.33;6.63;;;8.90;99.90;;;;;;5093817;28;20830;-69
2022/09/27 05:57:57;;;;;;;6.90;5.90;;;9.00;99.90;;;;;;5098645;28;20556;-68
2022/09/27 06:00:25;;;;;;;6.50;6.00;;;9.00;99.90;;;;;;5095150;28;20457;-68
2022/09/27 06:02:57;;;;;;;6.40;6.00;;;9.00;99.90;;;;;;5095250;28;20465;-70
2022/09/27 06:05:26;;;;;;;6.77;6.27;;;9.00;99.90;;;;;;5096355;28;20457;-69
2022/09/27 06:07:57;;;;;;;8.43;6.47;;;9.10;99.90;;;;;;5095244;28;20470;-69
2022/09/27 06:10:26;;;;;;;7.00;6.30;;;9.10;99.90;;;;;;5093282;28;20778;-69
2022/09/27 06:12:53;;;;;;;9.33;6.37;;;9.10;99.90;;;;;;5090762;28;20477;-69
2022/09/27 06:15:20;;;;;;;5.83;5.33;;;9.10;99.90;;;;;;5092761;28;20465;-68
2022/09/27 06:17:47;;;;;;;7.27;5.53;;;9.10;99.90;;;;;;5096198;28;20560;-70
2022/09/27 06:20:17;;;;;;;6.20;5.60;;;9.20;99.90;;;;;;5099325;28;20582;-70
2022/09/27 06:22:45;;;;;;;5.40;5.10;;;9.20;99.90;;;;;;5102198;28;20467;-69
2022/09/27 06:25:11;;;;;;;6.77;5.90;;;9.20;99.90;;;;;;5092862;28;20484;-68
2022/09/27 06:27:39;;;;;;;6.10;5.60;;;9.20;99.90;;;;;;5095858;28;20482;-68
2022/09/27 06:30:06;;;;;;;7.43;6.83;;;9.20;99.90;;;;;;5099643;28;20574;-68
2022/09/27 06:32:33;;;;;;;8.57;7.70;;;9.20;99.90;;;;;;5094995;28;20464;-69
2022/09/27 06:35:04;;;;;;;7.03;6.73;;;9.20;99.90;;;;;;5093085;28;20451;-68
2022/09/27 06:37:32;;;;;;;7.67;7.30;;;9.20;99.90;;;;;;5095998;28;20564;-69
2022/09/27 06:40:01;;;;;;;7.70;7.27;;;9.20;99.90;;;;;;5092025;28;20470;-69
2022/09/27 06:42:29;;;;;;;8.30;7.40;;;9.20;99.90;;;;;;5096534;28;20544;-68
2022/09/27 06:44:56;;;;;;;8.13;7.73;;;9.20;99.90;;;;;;5086305;28;20840;-69
2022/09/27 06:47:24;;;;;;;8.63;7.87;;;9.20;99.90;;;;;;5087988;28;20842;-68
2022/09/27 06:49:50;;;;;;;8.33;7.70;;;9.20;99.90;;;;;;5089654;28;20582;-69
2022/09/27 06:52:18;;;;;;;9.37;8.47;;;9.10;99.90;;;;;;5088221;28;21036;-68
2022/09/27 06:54:46;;;;;;;8.63;8.07;;;9.10;99.90;;;;;;5088059;28;20485;-69
2022/09/27 07:00:22;;;;;;;8.67;8.00;;;9.10;99.90;;;;;;5090197;28;21478;-69
2022/09/27 07:02:42;;;;;;;9.93;9.43;;;9.20;99.90;;;;;;5075929;28;20450;-68
2022/09/27 07:05:09;;;;;;;10.20;9.60;;;9.10;99.90;;;;;;5089791;28;20959;-67
2022/09/27 07:07:36;;;;;;;9.90;9.00;;;9.10;99.90;;;;;;5089219;28;20469;-68
2022/09/27 07:10:05;;;;;;;10.07;9.57;;;9.10;99.90;;;;;;5092631;28;20489;-68
2022/09/27 07:12:34;;;;;;;10.33;9.70;;;9.10;99.90;;;;;;5092223;28;20524;-68
2022/09/27 07:15:01;;;;;;;11.20;10.50;;;9.10;99.90;;;;;;5092241;28;20989;-68
2022/09/27 07:17:28;;;;;;;10.30;9.60;;;9.20;99.90;;;;;;5091178;28;20520;-69
2022/09/27 07:19:56;;;;;;;10.57;9.80;;;9.30;99.90;;;;;;5089742;28;20463;-69
2022/09/27 07:22:23;;;;;;;10.80;10.20;;;9.30;99.90;;;;;;5091722;28;20469;-68
2022/09/27 07:24:50;;;;;;;9.40;8.80;;;9.40;99.90;;;;;;5093111;28;20472;-69
2022/09/27 07:27:18;;;;;;;8.77;8.37;;;9.50;99.90;;;;;;5093552;28;20453;-68
2022/09/27 07:29:46;;;;;;;9.27;8.77;;;9.60;99.90;;;;;;5090360;28;20464;-69
2022/09/27 07:32:12;;;;;;;8.93;8.50;;;9.50;99.90;;;;;;5093247;28;20469;-67
2022/09/27 07:34:39;;;;;;;9.47;8.97;;;9.60;99.90;;;;;;5091021;28;20821;-70
2022/09/27 07:37:06;;;;;;;9.90;9.10;;;9.70;99.90;;;;;;5093260;28;20482;-68
2022/09/27 07:39:33;;;;;;;9.07;8.57;;;9.70;99.90;;;;;;5091946;28;20472;-68
2022/09/27 07:42:01;;;;;;;9.37;8.90;;;9.80;99.90;;;;;;5093036;28;20477;-70
2022/09/27 07:44:29;;;;;;;9.50;8.90;;;9.90;99.90;;;;;;5090416;28;20975;-69
2022/09/27 07:46:56;;;;;;;10.17;9.10;;;9.90;99.90;;;;;;5093219;28;20480;-68
2022/09/27 07:49:24;;;;;;;9.23;8.50;;;10.00;99.90;;;;;;5095128;28;20454;-69
2022/09/27 07:51:51;;;;;;;9.07;8.37;;;10.00;99.90;;;;;;5092841;28;20612;-68
2022/09/27 07:54:19;;;;;;;8.13;7.53;;;10.20;99.90;;;;;;5091662;28;20944;-68
2022/09/27 07:56:46;;;;;;;8.40;7.73;;;10.30;99.90;;;;;;5092001;28;20489;-69
2022/09/27 07:59:13;;;;;;;9.27;8.47;;;10.20;99.90;;;;;;5091311;28;20465;-70
2022/09/27 08:01:42;;;;;;;8.13;7.63;;;10.20;99.90;;;;;;5091868;28;20836;-68
2022/09/27 08:04:09;;;;;;;7.73;7.03;;;10.20;99.90;;;;;;5094645;28;20562;-69
2022/09/27 08:06:36;;;;;;;7.30;6.73;;;10.20;99.90;;;;;;5092028;28;20575;-69
2022/09/27 08:09:06;;;;;;;7.77;7.10;;;10.30;99.90;;;;;;5089104;28;20453;-68
2022/09/27 08:11:34;;;;;;;7.70;7.00;;;10.40;99.90;;;;;;5091225;28;20496;-68
2022/09/27 08:14:03;;;;;;;7.37;6.70;;;10.40;99.90;;;;;;5091311;28;21353;-68
2022/09/27 08:16:30;;;;;;;7.03;6.63;;;10.50;99.90;;;;;;5088244;28;20988;-68
2022/09/27 08:18:59;;;;;;;7.17;6.67;;;10.60;99.90;;;;;;5093264;28;20476;-69
2022/09/27 08:21:26;;;;;;;7.40;6.90;;;10.60;99.90;;;;;;5093489;28;20505;-69
2022/09/27 08:23:53;;;;;;;7.23;6.73;;;10.80;99.90;;;;;;5092002;28;20465;-69
2022/09/27 08:26:20;;;;;;;8.43;7.93;;;10.80;99.90;;;;;;5091819;28;20463;-70
2022/09/27 08:28:47;;;;;;;7.73;7.13;;;10.80;99.90;;;;;;5089706;28;20493;-68
2022/09/27 08:31:15;;;;;;;7.77;7.37;;;10.90;99.90;;;;;;5089367;28;20470;-68
2022/09/27 08:33:42;;;;;;;8.30;7.80;;;10.90;99.90;;;;;;5093753;28;20461;-69
2022/09/27 08:36:12;;;;;;;9.67;7.93;;;11.00;99.90;;;;;;5091525;28;20463;-68
2022/09/27 08:38:40;;;;;;;7.50;6.87;;;11.00;99.90;;;;;;5091186;28;20464;-70
2022/09/27 08:41:12;;;;;;;8.03;7.63;;;11.10;99.90;;;;;;5091839;28;20466;-69
2022/09/27 08:43:47;;;;;;;10.63;7.40;;;11.10;99.90;;;;;;5091264;28;20469;-67
2022/09/27 08:46:25;;;;;;;8.63;8.00;;;11.20;99.90;;;;;;5091474;28;20467;-68
2022/09/27 08:48:57;;;;;;;9.23;8.53;;;11.20;99.90;;;;;;5097124;28;20949;-67
2022/09/27 08:51:29;;;;;;;8.47;7.80;;;11.50;99.90;;;;;;5098670;28;20475;-68
2022/09/27 08:54:01;;;;;;;9.73;8.17;;;11.80;99.90;;;;;;5096701;28;20548;-68
2022/09/27 08:56:28;;;;;;;9.50;8.80;;;12.00;99.90;;;;;;5095450;28;20748;-68
2022/09/27 08:59:02;;;;;;;16.63;9.20;;;12.00;99.90;;;;;;5095995;28;20493;-67
2022/09/27 09:01:29;;;;;;;11.70;10.40;;;12.00;99.90;;;;;;5097001;28;20453;-67
2022/09/27 09:03:59;;;;;;;10.40;9.80;;;11.70;99.90;;;;;;5096639;28;21035;-67
2022/09/27 09:06:33;;;;;;;11.63;10.93;;;11.80;99.90;;;;;;5097885;28;20461;-67
2022/09/27 09:09:09;;;;;;;11.53;10.83;;;11.80;99.90;;;;;;5095086;28;20460;-68
2022/09/27 09:14:57;;;;;;;10.60;10.00;;;12.10;99.90;;;;;;5098311;28;20460;-68
2022/09/27 09:17:38;;;;;;;12.07;11.23;;;12.50;99.90;;;;;;5083276;28;20489;-68
2022/09/27 09:20:21;;;;;;;11.63;11.03;;;12.80;99.90;;;;;;5096119;28;20457;-68
2022/09/27 09:23:17;;;;;;;12.30;11.60;;;12.70;99.90;;;;;;5085577;28;20462;-68
2022/09/27 09:25:53;;;;;;;13.97;12.93;;;12.60;99.90;;;;;;5094103;28;20457;-68
2022/09/27 09:28:34;;;;;;;13.63;12.67;;;12.70;99.90;;;;;;5092857;28;20494;-70
2022/09/27 09:31:08;;;;;;;14.33;13.33;;;12.70;99.90;;;;;;5092980;28;20480;-68
2022/09/27 09:33:40;;;;;;;14.80;13.67;;;12.70;99.90;;;;;;5092781;28;20465;-70
2022/09/27 09:36:17;;;;;;;12.80;12.10;;;12.70;99.90;;;;;;5097084;28;20465;-68
2022/09/27 09:38:50;;;;;;;13.40;12.30;;;12.60;99.90;;;;;;5094724;28;20485;-68
2022/09/27 09:41:22;;;;;;;14.27;13.30;;;12.60;99.90;;;;;;5094782;28;20461;-68
2022/09/27 09:43:54;;;;;;;13.83;12.53;;;12.60;99.90;;;;;;5094691;28;20468;-68
2022/09/27 09:46:25;;;;;;;14.23;13.20;;;12.50;99.90;;;;;;5091592;28;20472;-68
2022/09/27 09:48:57;;;;;;;15.07;13.80;;;12.50;99.90;;;;;;5089532;28;20466;-68
2022/09/27 09:51:30;;;;;;;14.37;13.57;;;12.10;99.90;;;;;;5093182;28;20570;-68
2022/09/27 09:54:04;;;;;;;14.63;13.77;;;12.00;99.90;;;;;;5095634;28;20885;-68
2022/09/27 09:56:36;;;;;;;15.60;14.50;;;12.00;99.90;;;;;;5096099;28;20519;-67
2022/09/27 09:59:10;;;;;;;17.77;16.30;;;11.70;99.90;;;;;;5089019;28;20469;-67
2022/09/27 10:01:42;;;;;;;18.67;17.47;;;11.80;99.90;;;;;;5093324;28;20465;-67
2022/09/27 10:04:15;;;;;;;19.67;18.10;;;11.70;99.90;;;;;;5094864;28;20462;-68
2022/09/27 10:06:42;;;;;;;18.33;17.13;;;11.40;99.90;;;;;;5093557;28;20468;-68
2022/09/27 10:09:12;;;;;;;18.07;16.97;;;11.50;99.90;;;;;;5096799;28;20453;-67
2022/09/27 10:11:41;;;;;;;16.77;15.77;;;11.60;99.90;;;;;;5095002;28;20824;-69
2022/09/27 10:14:12;;;;;;;17.20;16.00;;;11.50;99.90;;;;;;5095395;28;20472;-69
2022/09/27 10:16:42;;;;;;;17.33;16.00;;;11.40;99.90;;;;;;5093356;28;20466;-68
2022/09/27 10:19:10;;;;;;;19.20;17.90;;;11.20;99.90;;;;;;5095267;28;20462;-68
2022/09/27 10:21:41;;;;;;;20.70;18.70;;;11.20;99.90;;;;;;5093286;28;20465;-67
2022/09/27 10:24:11;;;;;;;19.93;18.37;;;11.20;99.90;;;;;;5090219;28;20457;-69
2022/09/27 10:26:42;;;;;;;19.13;17.97;;;11.00;99.90;;;;;;5092652;28;20461;-68
2022/09/27 10:29:17;;;;;;;19.30;18.00;;;11.00;99.90;;;;;;5089976;28;20500;-69
2022/09/27 10:31:46;;;;;;;19.10;17.50;;;10.90;99.90;;;;;;5087965;28;20465;-68
2022/09/27 10:34:29;;;;;;;18.50;16.93;;;11.10;99.90;;;;;;5090981;28;20466;-69
2022/09/27 10:37:04;;;;;;;18.70;17.17;;;11.20;99.90;;;;;;5090886;28;20506;-68
2022/09/27 10:39:34;;;;;;;19.37;18.07;;;11.30;99.90;;;;;;5092430;28;20461;-69
2022/09/27 10:42:01;;;;;;;20.80;19.10;;;11.30;99.90;;;;;;5087528;28;21600;-69
2022/09/27 10:44:30;;;;;;;18.97;17.57;;;11.40;99.90;;;;;;5089964;28;20470;-70
2022/09/27 10:47:02;;;;;;;19.33;18.13;;;11.60;99.90;;;;;;5089756;28;20878;-69
2022/09/27 10:49:32;;;;;;;19.53;17.93;;;11.50;99.90;;;;;;5093542;28;20856;-69
2022/09/27 10:52:00;;;;;;;19.50;18.17;;;11.40;99.90;;;;;;5091691;28;20449;-69
2022/09/27 10:54:30;;;;;;;19.40;18.00;;;11.50;99.90;;;;;;5087865;28;20462;-68
2022/09/27 10:57:03;;;;;;;18.87;17.37;;;11.50;99.90;;;;;;5087412;28;20470;-70
2022/09/27 10:59:33;;;;;;;18.50;17.10;;;11.70;99.90;;;;;;5088406;28;21176;-69
2022/09/27 11:02:01;;;;;;;18.40;17.20;;;11.90;99.90;;;;;;5087448;28;20470;-70
2022/09/27 11:04:31;;;;;;;17.77;16.57;;;11.70;99.90;;;;;;5087424;28;20564;-69
2022/09/27 11:07:17;;;;;;;17.03;15.83;;;12.00;99.90;;;;;;5086513;28;20464;-72
2022/09/27 11:09:49;;;;;;;15.13;13.60;;;12.10;99.90;;;;;;5085394;28;20480;-71
2022/09/27 11:12:19;;;;;;;16.40;15.07;;;12.20;99.90;;;;;;5086400;28;20482;-69
2022/09/27 11:14:56;;;;;;;14.90;13.70;;;12.10;99.90;;;;;;5087376;28;20465;-69
2022/09/27 11:17:34;;;;;;;15.33;14.20;;;12.00;99.90;;;;;;5093730;28;21028;-69
2022/09/27 11:20:28;;;;;;;13.40;12.50;;;11.80;99.90;;;;;;5088051;28;20454;-69
2022/09/27 11:23:23;;;;;;;13.33;12.33;;;12.30;99.90;;;;;;5087967;28;20458;-69
2022/09/27 11:26:04;;;;;;;14.30;12.90;;;12.70;99.90;;;;;;5090172;28;20466;-69
2022/09/27 11:28:49;;;;;;;14.00;12.70;;;13.10;99.90;;;;;;5089826;28;20821;-70
2022/09/27 11:31:28;;;;;;;13.27;12.37;;;13.60;99.90;;;;;;5093670;28;21020;-69
2022/09/27 11:34:14;;;;;;;15.23;14.33;;;14.00;99.90;;;;;;5096308;28;20592;-69
2022/09/27 11:36:54;;;;;;;16.33;15.33;;;13.90;99.90;;;;;;5093627;28;20468;-68
2022/09/27 11:39:26;;;;;;;17.23;16.13;;;13.50;99.90;;;;;;5092703;28;20548;-68
2022/09/27 11:42:13;;;;;;;17.90;16.80;;;13.10;99.90;;;;;;5090084;28;20832;-71
2022/09/27 11:45:04;;;;;;;15.57;14.67;;;12.60;99.90;;;;;;5094165;28;20952;-69
2022/09/27 11:47:44;;;;;;;16.27;15.17;;;12.50;99.90;;;;;;5092372;28;20458;-69
2022/09/27 11:50:47;;;;;;;16.13;15.10;;;12.70;99.90;;;;;;5093284;28;20550;-69
2022/09/27 11:53:28;;;;;;;15.77;14.87;;;13.10;99.90;;;;;;5094926;28;20449;-69
2022/09/27 11:56:06;;;;;;;19.37;17.93;;;12.90;99.90;;;;;;5091070;28;20457;-67
2022/09/27 11:58:42;;;;;;;19.63;17.50;;;12.40;99.90;;;;;;5095953;28;20500;-69
2022/09/27 12:01:26;;;;;;;18.13;16.63;;;12.20;99.90;;;;;;5091055;28;20452;-70
2022/09/27 12:04:14;;;;;;;16.80;15.80;;;12.10;99.90;;;;;;5094498;28;20463;-69
2022/09/27 12:06:51;;;;;;;14.90;14.00;;;11.90;99.90;;;;;;5093899;28;20466;-70
2022/09/27 12:09:23;;;;;;;16.00;15.10;;;11.90;99.90;;;;;;5096356;28;20459;-69
2022/09/27 12:11:54;;;;;;;15.00;14.30;;;11.90;99.90;;;;;;5092217;28;20940;-68
2022/09/27 12:14:29;;;;;;;15.73;14.83;;;11.80;99.90;;;;;;5090544;28;20513;-68
2022/09/27 12:16:58;;;;;;;16.27;15.00;;;11.50;99.90;;;;;;5087710;28;20534;-69
2022/09/27 12:19:29;;;;;;;16.50;15.60;;;11.30;99.90;;;;;;5092689;28;20885;-69
2022/09/27 12:22:00;;;;;;;17.23;16.13;;;10.70;99.90;;;;;;5092310;28;20450;-68
2022/09/27 12:24:28;;;;;;;14.90;14.10;;;10.40;99.90;;;;;;5093827;28;20462;-69
2022/09/27 12:26:59;;;;;;;13.47;12.77;;;10.50;99.90;;;;;;5095501;28;20453;-68
2022/09/27 12:29:28;;;;;;;12.93;12.20;;;10.80;99.90;;;;;;5097066;28;20481;-69
2022/09/27 12:32:04;;;;;;;12.33;11.70;;;10.80;99.90;;;;;;5091722;28;20756;-68
2022/09/27 12:34:38;;;;;;;11.40;10.60;;;10.90;99.90;;;;;;5096347;28;20464;-70
2022/09/27 12:37:11;;;;;;;10.10;9.40;;;11.00;99.90;;;;;;5091914;28;20797;-69
2022/09/27 12:39:48;;;;;;;10.50;10.10;;;11.30;99.90;;;;;;5094093;28;20504;-69
2022/09/27 12:42:21;;;;;;;10.93;10.33;;;11.40;99.90;;;;;;5093083;28;20908;-68
2022/09/27 12:44:48;;;;;;;11.40;10.87;;;11.70;99.90;;;;;;5094439;28;20838;-68
2022/09/27 12:47:27;;;;;;;11.30;10.80;;;12.00;99.90;;;;;;5093681;28;20460;-67
2022/09/27 12:50:03;;;;;;;13.00;12.30;;;12.20;99.90;;;;;;5095039;28;20476;-68
2022/09/27 12:52:34;;;;;;;14.07;13.37;;;12.20;99.90;;;;;;5093941;28;20506;-67
2022/09/27 12:55:25;;;;;;;13.90;13.20;;;11.70;99.90;;;;;;5092710;28;20454;-68
2022/09/27 12:58:11;;;;;;;13.07;12.40;;;11.40;99.90;;;;;;5093178;28;20482;-68
2022/09/27 13:00:44;;;;;;;13.20;12.53;;;11.40;99.90;;;;;;5091911;28;20972;-68
2022/09/27 13:03:35;;;;;;;13.90;13.10;;;11.30;99.90;;;;;;5091322;28;21011;-68
2022/09/27 13:06:28;;;;;;;13.10;12.47;;;11.20;99.90;;;;;;5091857;28;20945;-68
2022/09/27 13:09:21;;;;;;;13.83;13.10;;;11.20;99.90;;;;;;5090691;28;20480;-68
2022/09/27 13:11:56;;;;;;;13.50;12.70;;;11.00;99.90;;;;;;5095010;28;20967;-68
2022/09/27 13:14:26;;;;;;;13.80;13.10;;;11.00;99.90;;;;;;5098949;28;20457;-68